Time;durP1;ratioP1;P1;durP2;ratioP2;P2;SDS_P1;SDS_P2;PMS_P1;PMS_P2;Temp;Humidity;BMP_temperature;BMP_pressure;BME280_temperature;BME280_humidity;BME280_pressure;Samples;Min_cycle;Max_cycle;Signal;HPM_P1;HPM_P2
2022/05/07 00:02:30;;;;;;;91.93;48.13;;;12.80;90.20;;;;;;4994499;28;20492;-81
2022/05/07 00:05:19;;;;;;;86.20;47.50;;;12.70;90.50;;;;;;4996596;28;20042;-81
2022/05/07 00:07:54;;;;;;;86.15;46.15;;;12.70;90.70;;;;;;4986632;28;20129;-81
2022/05/07 00:11:11;;;;;;;86.68;45.38;;;12.80;90.90;;;;;;4982941;28;20474;-81
2022/05/07 00:14:27;;;;;;;82.13;44.95;;;12.70;90.60;;;;;;4959715;28;20496;-82
2022/05/07 00:20:12;;;;;;;85.72;45.40;;;12.70;90.60;;;;;;4989318;28;20114;-81
2022/05/07 00:22:54;;;;;;;82.45;43.65;;;12.70;90.50;;;;;;5002810;28;20137;-81
2022/05/07 00:25:49;;;;;;;89.00;47.35;;;12.70;90.20;;;;;;4980901;28;20026;-81
2022/05/07 00:28:26;;;;;;;84.82;45.05;;;12.50;91.20;;;;;;4960979;28;20054;-81
2022/05/07 00:31:18;;;;;;;86.60;46.13;;;12.50;90.90;;;;;;4978748;28;20045;-81
2022/05/07 00:33:55;;;;;;;86.13;46.60;;;12.60;91.40;;;;;;4962510;28;20084;-81
2022/05/07 00:36:56;;;;;;;94.47;48.58;;;12.60;91.20;;;;;;4978166;28;20042;-81
2022/05/07 00:39:48;;;;;;;;;;;;;;;;;;;;;
2022/05/07 00:42:32;;;;;;;;;;;;;;;;;;;;;
2022/05/07 00:45:35;;;;;;;;;;;;;;;;;;;;;
2022/05/07 00:48:23;;;;;;;85.53;45.63;;;12.70;91.60;;;;;;4998839;28;20501;-80
2022/05/07 00:54:29;;;;;;;75.45;44.33;;;12.70;91.20;;;;;;4999062;28;20497;-80
2022/05/07 00:57:18;;;;;;;;;;;;;;;;;;;;;
2022/05/07 01:00:37;;;;;;;72.40;40.53;;;12.70;91.00;;;;;;4997540;28;20074;-80
2022/05/07 01:03:21;;;;;;;70.05;39.90;;;12.60;90.50;;;;;;4941303;28;20043;-80
2022/05/07 01:06:25;;;;;;;67.05;39.03;;;12.70;90.70;;;;;;5008278;28;20179;-81
2022/05/07 01:09:13;;;;;;;74.78;39.10;;;12.80;90.50;;;;;;4965570;28;20054;-80
2022/05/07 01:12:26;;;;;;;61.47;37.47;;;12.80;90.50;;;;;;4981991;28;20521;-80
2022/05/07 01:15:20;;;;;;;69.60;39.88;;;12.70;90.30;;;;;;4999179;28;20096;-80
2022/05/07 01:17:51;;;;;;;61.92;37.90;;;12.70;90.20;;;;;;4982364;28;20053;-80
2022/05/07 01:20:37;;;;;;;63.40;39.92;;;12.70;90.60;;;;;;5015014;28;20034;-80
2022/05/07 01:23:32;;;;;;;65.55;39.35;;;12.80;90.10;;;;;;4997668;28;20092;-80
2022/05/07 01:26:48;;;;;;;71.22;40.05;;;12.90;90.20;;;;;;5005444;28;20046;-81
2022/05/07 01:29:28;;;;;;;64.82;38.50;;;12.80;90.00;;;;;;4998022;28;20542;-80
2022/05/07 01:32:02;;;;;;;75.15;41.40;;;12.80;90.10;;;;;;4981978;28;20041;-80
2022/05/07 01:34:36;;;;;;;68.55;40.00;;;12.70;90.50;;;;;;4997023;28;20054;-80
2022/05/07 01:37:15;;;;;;;69.25;41.03;;;12.70;90.00;;;;;;4998580;28;20037;-80
2022/05/07 01:39:47;;;;;;;67.78;40.92;;;12.60;90.20;;;;;;4997954;28;20076;-80
2022/05/07 01:42:29;;;;;;;67.10;39.47;;;12.60;90.40;;;;;;4982940;28;20037;-80
2022/05/07 01:45:01;;;;;;;65.47;39.35;;;12.60;90.10;;;;;;4998421;28;20549;-80
2022/05/07 01:51:00;;;;;;;53.97;35.13;;;12.50;90.00;;;;;;5011488;28;20061;-80
2022/05/07 01:53:40;;;;;;;65.20;39.65;;;12.50;89.50;;;;;;5016098;28;20040;-79
2022/05/07 01:56:11;;;;;;;60.08;39.03;;;12.50;90.00;;;;;;5027264;28;20035;-80
2022/05/07 01:58:50;;;;;;;66.90;40.25;;;12.50;90.10;;;;;;5018189;28;20121;-80
2022/05/07 02:01:55;;;;;;;66.35;39.65;;;12.50;90.50;;;;;;5005842;28;20068;-81
2022/05/07 02:04:31;;;;;;;69.97;40.47;;;12.50;90.10;;;;;;4987450;28;20058;-80
2022/05/07 02:07:03;;;;;;;63.25;38.17;;;12.50;90.00;;;;;;5016101;28;20048;-80
2022/05/07 02:09:47;;;;;;;73.55;40.42;;;12.50;89.70;;;;;;5001076;28;20371;-81
2022/05/07 02:12:46;;;;;;;60.70;38.35;;;12.40;89.90;;;;;;5001294;28;20045;-80
2022/05/07 02:15:26;;;;;;;63.63;38.72;;;12.50;90.10;;;;;;5000261;28;20477;-80
2022/05/07 02:18:15;;;;;;;68.32;39.17;;;12.40;90.20;;;;;;5016521;28;20041;-80
2022/05/07 02:21:18;;;;;;;66.25;39.95;;;12.50;90.10;;;;;;5010967;28;20045;-81
2022/05/07 02:24:07;;;;;;;;;;;12.40;90.00;;;;;;4970820;28;20551;-80
2022/05/07 02:27:07;;;;;;;66.03;38.88;;;12.40;90.00;;;;;;5001123;28;20051;-80
2022/05/07 02:33:21;;;;;;;59.08;36.63;;;12.30;89.40;;;;;;5017169;28;20411;-80
2022/05/07 02:36:26;;;;;;;56.57;35.57;;;12.30;89.60;;;;;;4989580;28;20553;-80
2022/05/07 02:45:14;;;;;;;70.80;42.55;;;12.30;90.70;;;;;;5016103;28;20041;-80
2022/05/07 02:47:43;;;;;;;65.78;40.95;;;12.20;90.40;;;;;;5000432;28;20029;-80
2022/05/07 02:50:35;;;;;;;;;;;;;;;;;;;;;
2022/05/07 02:53:20;;;;;;;61.15;40.22;;;12.20;90.00;;;;;;5000935;28;20045;-80
2022/05/07 02:56:19;;;;;;;60.67;38.15;;;12.20;90.10;;;;;;5000352;28;20037;-80
2022/05/07 02:59:10;;;;;;;62.72;37.92;;;12.20;89.80;;;;;;5000335;28;20036;-80
2022/05/07 03:04:59;;;;;;;64.28;39.92;;;12.20;90.00;;;;;;4975914;28;20391;-80
2022/05/07 03:07:46;;;;;;;59.35;37.67;;;12.10;89.90;;;;;;4942628;28;20047;-81
2022/05/07 03:11:01;;;;;;;;;;;;;;;;;;;;;
2022/05/07 03:14:08;;;;;;;67.57;40.08;;;12.20;90.00;;;;;;4975791;28;20077;-81
2022/05/07 03:16:53;;;;;;;61.33;38.38;;;12.10;90.10;;;;;;4964798;28;20057;-80
2022/05/07 03:23:25;;;;;;;64.47;41.42;;;12.00;90.00;;;;;;4964617;28;20068;-80
2022/05/07 03:26:29;;;;;;;68.15;41.53;;;12.10;91.20;;;;;;4978885;28;20050;-82
2022/05/07 03:29:32;;;;;;;84.88;47.75;;;12.20;92.20;;;;;;4985180;28;20111;-81
2022/05/07 03:48:20;;;;;;;;;;;;;;;;;;;;;
2022/05/07 04:10:39;;;;;;;;;;;;;;;;;;;;;
2022/05/07 04:18:05;;;;;;;;;;;;;;;;;;;;;
2022/05/07 04:21:50;;;;;;;94.07;49.65;;;12.00;93.10;;;;;;4820853;29;20058;-82
2022/05/07 04:25:13;;;;;;;76.65;45.47;;;12.00;92.40;;;;;;4841547;29;20202;-80
2022/05/07 04:43:44;;;;;;;88.22;47.83;;;11.80;92.50;;;;;;4821976;29;20058;-80
2022/05/07 05:02:28;;;;;;;101.97;54.03;;;11.90;93.20;;;;;;4888683;29;20053;-81
2022/05/07 05:05:36;;;;;;;87.47;47.28;;;12.00;93.50;;;;;;4880188;29;20041;-81
2022/05/07 05:12:13;;;;;;;;;;;;;;;;;;;;;
2022/05/07 05:15:38;;;;;;;102.93;54.72;;;12.10;93.90;;;;;;4995068;28;20057;-80
2022/05/07 05:18:40;;;;;;;;;;;;;;;;;;;;;
2022/05/07 05:21:45;;;;;;;89.95;51.42;;;12.10;93.70;;;;;;4985889;28;20069;-81
2022/05/07 05:25:09;;;;;;;72.43;44.25;;;12.20;93.30;;;;;;4997220;28;20110;-80
2022/05/07 05:28:02;;;;;;;70.60;45.58;;;12.30;93.00;;;;;;4980040;28;20057;-80
2022/05/07 05:42:51;;;;;;;;;;;;;;;;;;;;;
2022/05/07 06:01:02;;;;;;;;;;;;;;;;;;;;;
2022/05/07 06:04:58;;;;;;;;;;;;;;;;;;;;;
2022/05/07 06:08:15;;;;;;;70.38;48.08;;;13.50;90.70;;;;;;4916817;29;20047;-81
2022/05/07 06:11:51;;;;;;;83.57;53.25;;;13.60;90.20;;;;;;4916456;29;20047;-80
2022/05/07 06:14:35;;;;;;;92.07;55.65;;;13.70;90.50;;;;;;4957143;28;20475;-80
2022/05/07 06:20:55;;;;;;;;;;;;;;;;;;;;;
2022/05/07 06:23:24;;;;;;;87.38;53.60;;;13.70;90.30;;;;;;4956379;28;20198;-80
2022/05/07 06:29:14;;;;;;;95.90;53.58;;;13.60;90.80;;;;;;4961433;29;20241;-81
2022/05/07 06:36:37;;;;;;;116.43;63.15;;;13.60;91.40;;;;;;4951336;28;20138;-79
2022/05/07 06:40:15;;;;;;;;;;;;;;;;;;;;;
2022/05/07 06:50:10;;;;;;;113.00;60.10;;;13.50;91.40;;;;;;5007741;28;20045;-81
2022/05/07 07:07:44;;;;;;;106.13;62.35;;;13.30;91.60;;;;;;4915555;29;20046;-79
2022/05/07 07:10:21;;;;;;;106.78;62.30;;;13.30;92.30;;;;;;4939415;28;20386;-76
2022/05/07 07:12:55;;;;;;;111.47;63.25;;;13.30;91.80;;;;;;4975796;28;20035;-76
2022/05/07 07:15:48;;;;;;;116.75;63.95;;;13.30;91.70;;;;;;4974061;28;20137;-80
2022/05/07 07:19:09;;;;;;;;;;;;;;;;;;;;;
2022/05/07 07:30:08;;;;;;;115.30;61.15;;;13.40;92.20;;;;;;4974210;28;20137;-81
2022/05/07 07:32:34;;;;;;;130.38;66.30;;;13.40;91.80;;;;;;4996496;28;20049;-77
2022/05/07 07:34:59;;;;;;;240.30;72.28;;;13.50;92.10;;;;;;5012648;28;20034;-82
2022/05/07 07:38:53;;;;;;;123.45;63.33;;;13.50;92.10;;;;;;4995989;28;20048;-80
2022/05/07 07:41:02;;;;;;;101.80;58.40;;;13.60;91.90;;;;;;4982005;28;20180;-77
2022/05/07 07:43:37;;;;;;;95.70;55.03;;;13.70;91.80;;;;;;4996251;28;20120;-77
2022/05/07 07:48:50;;;;;;;84.88;45.90;;;13.90;90.40;;;;;;4996409;28;20042;-78
2022/05/07 07:51:31;;;;;;;95.05;51.78;;;14.00;90.80;;;;;;4996309;28;20069;-75
2022/05/07 07:53:57;;;;;;;82.95;47.78;;;14.10;91.00;;;;;;4997662;28;20052;-75
2022/05/07 07:56:28;;;;;;;69.03;42.85;;;14.20;90.70;;;;;;5005125;28;20033;-77
2022/05/07 07:58:54;;;;;;;80.60;45.55;;;14.30;90.60;;;;;;4999939;28;20042;-77
2022/05/07 08:01:20;;;;;;;70.32;41.95;;;14.50;90.30;;;;;;4996689;28;20038;-76
2022/05/07 08:03:45;;;;;;;84.30;46.28;;;14.50;90.00;;;;;;5012716;28;20037;-78
2022/05/07 08:06:13;;;;;;;71.53;41.75;;;14.50;89.20;;;;;;4996010;28;20048;-77
2022/05/07 08:11:44;;;;;;;70.95;41.45;;;14.80;86.50;;;;;;4996218;28;20489;-76
2022/05/07 08:14:25;;;;;;;63.83;38.42;;;14.70;87.80;;;;;;4996334;28;20041;-79
2022/05/07 08:17:01;;;;;;;66.80;38.85;;;14.80;87.50;;;;;;5011769;28;20360;-79
2022/05/07 08:19:32;;;;;;;60.65;36.80;;;14.80;87.30;;;;;;4995661;28;20049;-75
2022/05/07 08:22:31;;;;;;;64.57;39.50;;;14.80;86.60;;;;;;4995920;28;20077;-77
2022/05/07 08:25:14;;;;;;;65.32;37.38;;;14.80;86.10;;;;;;4996583;28;20465;-78
2022/05/07 08:27:58;;;;;;;67.35;40.63;;;15.00;86.90;;;;;;4996007;28;20084;-73
2022/05/07 08:31:04;;;;;;;58.40;38.08;;;15.40;86.60;;;;;;4996171;28;20458;-80
2022/05/07 08:33:36;;;;;;;63.42;39.22;;;15.80;86.00;;;;;;4995817;28;20034;-79
2022/05/07 08:36:05;;;;;;;64.28;38.05;;;16.10;84.80;;;;;;4996019;28;20378;-77
2022/05/07 08:38:45;;;;;;;60.63;38.28;;;16.40;84.70;;;;;;4995610;28;20042;-80
2022/05/07 08:41:11;;;;;;;58.08;36.78;;;16.50;82.80;;;;;;5012117;28;20037;-74
2022/05/07 08:43:55;;;;;;;;;;;16.60;83.10;;;;;;4996482;28;20038;-77
2022/05/07 08:50:13;;;;;;;53.45;33.55;;;16.60;80.70;;;;;;4996019;28;20079;-76
2022/05/07 08:52:46;;;;;;;54.05;33.67;;;16.60;80.70;;;;;;5013238;28;20041;-78
2022/05/07 08:55:26;;;;;;;54.38;32.72;;;16.60;79.20;;;;;;4998923;28;20041;-80
2022/05/07 08:57:53;;;;;;;55.45;35.20;;;16.60;77.30;;;;;;4998458;28;20124;-77
2022/05/07 09:00:48;;;;;;;54.92;34.60;;;16.40;78.60;;;;;;4999822;28;20111;-76
2022/05/07 09:03:52;;;;;;;52.30;32.17;;;16.40;78.90;;;;;;4995246;28;20111;-80
2022/05/07 09:06:27;;;;;;;53.28;33.22;;;16.30;76.80;;;;;;5012888;28;20398;-80
2022/05/07 09:08:57;;;;;;;54.60;32.88;;;16.20;78.50;;;;;;4998151;28;20516;-76
2022/05/07 09:11:45;;;;;;;47.17;26.95;;;16.10;79.60;;;;;;5003654;28;20061;-74
2022/05/07 09:14:11;;;;;;;45.63;26.30;;;16.10;78.20;;;;;;5017018;28;20032;-72
2022/05/07 09:16:39;;;;;;;44.30;25.27;;;16.00;79.70;;;;;;5013432;28;20077;-72
2022/05/07 09:19:05;;;;;;;42.85;24.70;;;16.00;79.40;;;;;;5004289;28;20431;-72
2022/05/07 09:21:32;;;;;;;44.92;28.52;;;16.00;79.40;;;;;;5016005;28;20072;-73
2022/05/07 09:32:21;;;;;;;56.35;35.08;;;15.90;80.30;;;;;;5427396;22;20397;-75
2022/05/07 09:37:36;;;;;;;50.35;30.40;;;15.80;80.20;;;;;;5052936;28;20056;-75
2022/05/07 09:40:08;;;;;;;46.00;29.30;;;15.90;80.70;;;;;;5036450;28;20041;-75
2022/05/07 09:42:34;;;;;;;49.22;30.38;;;16.10;80.00;;;;;;5050463;28;20183;-76
2022/05/07 09:45:07;;;;;;;56.50;33.53;;;16.30;78.90;;;;;;5046486;28;20045;-80
2022/05/07 09:47:59;;;;;;;55.00;34.08;;;16.30;78.50;;;;;;5054595;28;20044;-78
2022/05/07 09:51:01;;;;;;;45.47;27.75;;;16.40;78.10;;;;;;5038245;28;20128;-79
2022/05/07 09:59:16;;;;;;;28.23;17.15;;;17.10;74.80;;;;;;4977503;28;20053;-75
2022/05/07 10:02:17;;;;;;;28.50;17.73;;;17.00;73.00;;;;;;4945634;28;20085;-77
2022/05/07 10:05:13;;;;;;;24.55;14.18;;;17.20;73.30;;;;;;4977156;28;20091;-77
2022/05/07 10:08:13;;;;;;;23.38;11.48;;;17.20;73.90;;;;;;4977554;28;20038;-76
2022/05/07 10:10:40;;;;;;;20.75;12.20;;;17.10;72.50;;;;;;4961426;28;20034;-74
2022/05/07 10:13:07;;;;;;;26.27;15.85;;;17.10;72.70;;;;;;4961146;28;20129;-77
2022/05/07 10:15:34;;;;;;;33.50;20.45;;;17.10;73.50;;;;;;4961140;28;20618;-78
2022/05/07 10:18:14;;;;;;;33.45;20.85;;;17.20;73.80;;;;;;4996142;28;20041;-76
2022/05/07 10:20:56;;;;;;;33.10;19.80;;;17.10;73.50;;;;;;5045400;28;20519;-76
2022/05/07 10:23:28;;;;;;;27.63;18.23;;;16.80;73.20;;;;;;5050976;28;20044;-78
2022/05/07 10:25:58;;;;;;;32.15;18.33;;;16.60;74.20;;;;;;5036316;28;20098;-78
2022/05/07 10:28:43;;;;;;;28.15;16.58;;;16.70;74.80;;;;;;5042336;28;20037;-76
2022/05/07 10:31:23;;;;;;;24.65;15.48;;;16.50;75.20;;;;;;5035863;28;20033;-74
2022/05/07 10:33:50;;;;;;;25.63;15.25;;;16.60;74.50;;;;;;5070419;28;20124;-75
2022/05/07 10:36:17;;;;;;;25.48;17.02;;;16.60;74.40;;;;;;5045658;28;20049;-74
2022/05/07 10:38:45;;;;;;;31.45;17.27;;;16.60;74.50;;;;;;5038984;28;20041;-72
2022/05/07 10:41:17;;;;;;;26.63;16.27;;;16.70;74.80;;;;;;5056360;28;20045;-75
2022/05/07 10:43:47;;;;;;;25.67;16.20;;;16.70;74.40;;;;;;5059974;28;20503;-77
2022/05/07 10:46:36;;;;;;;30.35;19.33;;;16.80;74.00;;;;;;5046823;28;20086;-77
2022/05/07 10:49:06;;;;;;;26.88;16.30;;;16.90;74.00;;;;;;5054690;28;20044;-74
2022/05/07 10:51:34;;;;;;;31.90;18.90;;;16.80;73.80;;;;;;5057152;28;20037;-73
2022/05/07 10:54:19;;;;;;;26.15;16.00;;;16.80;73.80;;;;;;5078248;28;20041;-76
2022/05/07 10:56:50;;;;;;;23.05;17.10;;;17.10;73.50;;;;;;5052662;28;20059;-77
2022/05/07 10:59:17;;;;;;;26.70;17.05;;;16.90;73.20;;;;;;5033586;28;20036;-77
2022/05/07 11:01:42;;;;;;;24.27;16.05;;;16.90;73.10;;;;;;5038866;28;20048;-76
2022/05/07 11:04:13;;;;;;;25.88;15.95;;;16.90;73.20;;;;;;5055832;28;20040;-75
2022/05/07 11:06:46;;;;;;;24.33;14.90;;;16.80;72.70;;;;;;5051712;28;20381;-75
2022/05/07 11:09:16;;;;;;;22.95;14.93;;;17.00;73.30;;;;;;5037056;28;20128;-75
2022/05/07 11:11:46;;;;;;;20.67;13.02;;;17.00;72.30;;;;;;5065551;28;20406;-72
2022/05/07 11:14:25;;;;;;;18.40;13.43;;;17.20;72.70;;;;;;5053541;28;20036;-75
2022/05/07 11:16:53;;;;;;;21.25;13.43;;;17.20;71.90;;;;;;5055496;28;20049;-76
2022/05/07 11:19:36;;;;;;;19.25;12.85;;;17.30;72.30;;;;;;5054930;28;20123;-74
2022/05/07 11:22:08;;;;;;;21.40;13.55;;;17.30;71.90;;;;;;5039145;28;20052;-76
2022/05/07 11:24:35;;;;;;;21.40;12.77;;;17.30;71.20;;;;;;5055638;28;20052;-74
2022/05/07 11:27:05;;;;;;;19.25;12.07;;;17.60;72.10;;;;;;5066572;28;20044;-74
2022/05/07 11:29:32;;;;;;;20.58;13.02;;;17.60;71.60;;;;;;5054561;28;20048;-74
2022/05/07 11:32:07;;;;;;;21.35;14.15;;;17.80;71.00;;;;;;5033173;28;20477;-76
2022/05/07 11:34:39;;;;;;;22.55;14.18;;;17.70;69.90;;;;;;5036953;28;20423;-74
2022/05/07 11:37:22;;;;;;;24.17;13.80;;;17.60;70.20;;;;;;5055287;28;20044;-75
2022/05/07 11:39:56;;;;;;;23.70;12.38;;;17.40;70.80;;;;;;5038773;28;20488;-72
2022/05/07 11:42:31;;;;;;;22.38;12.30;;;17.40;71.60;;;;;;5036340;28;20044;-78
2022/05/07 11:47:55;;;;;;;24.05;13.73;;;17.60;69.80;;;;;;5055966;28;20047;-79
2022/05/07 11:50:41;;;;;;;22.48;13.00;;;17.70;69.90;;;;;;5048487;28;20078;-76
2022/05/07 11:53:20;;;;;;;17.67;11.30;;;17.80;68.80;;;;;;5058659;28;20055;-77
2022/05/07 11:55:47;;;;;;;19.98;13.00;;;17.60;69.10;;;;;;5078973;28;20025;-77
2022/05/07 11:58:16;;;;;;;20.98;13.13;;;17.60;69.90;;;;;;5063229;28;20036;-77
2022/05/07 12:00:47;;;;;;;21.70;12.30;;;17.70;70.00;;;;;;5066310;28;20048;-78
2022/05/07 12:03:31;;;;;;;21.13;14.00;;;17.80;70.10;;;;;;5037307;28;20040;-74
2022/05/07 12:05:58;;;;;;;20.80;11.98;;;17.50;70.30;;;;;;5054130;28;20108;-76
2022/05/07 12:08:34;;;;;;;21.63;13.52;;;17.40;69.10;;;;;;5037913;28;20372;-77
2022/05/07 12:11:02;;;;;;;21.52;13.88;;;17.30;70.90;;;;;;5073383;28;20045;-72
2022/05/07 12:13:30;;;;;;;20.10;12.63;;;17.40;70.50;;;;;;5053406;28;20032;-77
2022/05/07 12:18:46;;;;;;;19.15;11.00;;;17.60;70.00;;;;;;5064734;28;20048;-75
2022/05/07 12:21:12;;;;;;;17.10;9.70;;;17.70;69.90;;;;;;5025829;28;20051;-73
2022/05/07 12:31:53;;;;;;;12.88;8.60;;;18.00;67.50;;;;;;5043269;28;20047;-76
2022/05/07 12:34:19;;;;;;;9.70;6.95;;;17.90;68.70;;;;;;5024336;28;20048;-75
2022/05/07 12:36:45;;;;;;;14.23;7.05;;;17.90;68.60;;;;;;5035391;28;20172;-79
2022/05/07 12:39:12;;;;;;;17.45;8.00;;;18.20;68.80;;;;;;5040689;28;20070;-77
2022/05/07 12:41:41;;;;;;;10.63;7.53;;;18.20;67.10;;;;;;5055576;28;20024;-78
2022/05/07 12:44:07;;;;;;;10.27;6.30;;;18.20;67.90;;;;;;5036881;28;20094;-74
2022/05/07 12:46:33;;;;;;;13.43;7.75;;;18.30;67.70;;;;;;5056991;28;20048;-80
2022/05/07 12:48:59;;;;;;;11.57;6.97;;;18.30;66.70;;;;;;5058162;28;20094;-75
2022/05/07 12:51:25;;;;;;;11.50;7.05;;;18.20;66.40;;;;;;5057019;28;21350;-72
2022/05/07 12:53:55;;;;;;;15.43;7.30;;;18.60;67.10;;;;;;5039122;28;20054;-74
2022/05/07 12:56:22;;;;;;;11.35;7.53;;;18.40;66.40;;;;;;5056514;28;20350;-72
2022/05/07 12:58:50;;;;;;;12.63;7.25;;;18.50;66.30;;;;;;5039345;28;20473;-74
2022/05/07 13:01:16;;;;;;;14.45;7.68;;;18.40;67.00;;;;;;5056324;28;20044;-75
2022/05/07 13:03:42;;;;;;;9.85;7.07;;;18.30;65.90;;;;;;5040857;28;20381;-73
2022/05/07 13:06:08;;;;;;;13.82;7.20;;;18.50;66.60;;;;;;5040061;28;20051;-74
2022/05/07 13:08:33;;;;;;;11.93;7.55;;;18.50;65.60;;;;;;5057256;28;20040;-76
2022/05/07 13:10:59;;;;;;;11.05;7.20;;;18.40;65.90;;;;;;5040508;28;20373;-75
2022/05/07 13:13:25;;;;;;;9.38;6.28;;;18.30;65.80;;;;;;5060810;28;20420;-78
2022/05/07 13:15:51;;;;;;;11.55;7.60;;;18.20;67.60;;;;;;5040147;28;20032;-77
2022/05/07 13:18:20;;;;;;;12.68;7.88;;;18.10;69.20;;;;;;5056638;28;20040;-77
2022/05/07 13:20:49;;;;;;;10.77;7.00;;;17.70;70.10;;;;;;5040278;28;20032;-76
2022/05/07 13:23:15;;;;;;;9.98;7.07;;;17.30;71.20;;;;;;5040024;28;20602;-73
2022/05/07 13:25:42;;;;;;;12.25;6.78;;;17.40;71.60;;;;;;5040690;28;20039;-77
2022/05/07 13:28:08;;;;;;;9.15;5.35;;;17.50;71.40;;;;;;5040373;28;20058;-75
2022/05/07 13:30:34;;;;;;;6.03;4.10;;;17.50;71.70;;;;;;5056527;28;20033;-76
2022/05/07 13:33:00;;;;;;;8.90;4.00;;;17.70;69.90;;;;;;5023061;28;20539;-75
2022/05/07 13:35:26;;;;;;;9.77;5.05;;;17.70;69.70;;;;;;5055891;28;20056;-75
2022/05/07 13:37:51;;;;;;;6.80;4.70;;;17.50;70.50;;;;;;5056823;28;20095;-74
2022/05/07 13:40:17;;;;;;;5.78;4.30;;;17.60;70.80;;;;;;5040303;28;20044;-75
2022/05/07 13:42:43;;;;;;;6.93;4.38;;;17.50;70.40;;;;;;5056726;28;20138;-76
2022/05/07 13:45:11;;;;;;;5.30;3.70;;;17.40;70.60;;;;;;5040110;28;20086;-76
2022/05/07 13:47:41;;;;;;;5.53;3.38;;;17.50;70.70;;;;;;5039958;28;20075;-76
2022/05/07 13:50:09;;;;;;;4.25;3.08;;;17.50;69.90;;;;;;5026614;28;20051;-74
2022/05/07 13:52:36;;;;;;;3.70;2.55;;;17.50;70.80;;;;;;5060154;28;20062;-75
2022/05/07 13:55:06;;;;;;;6.88;2.58;;;17.50;69.80;;;;;;5069511;28;20044;-74
2022/05/07 13:57:32;;;;;;;3.63;2.58;;;17.60;70.10;;;;;;5049030;28;20037;-72
2022/05/07 13:59:59;;;;;;;;;;;17.80;71.00;;;;;;5040184;28;20047;-72
2022/05/07 14:02:28;;;;;;;13.73;2.63;;;18.00;68.10;;;;;;5039261;28;20417;-77
2022/05/07 14:04:54;;;;;;;5.10;2.53;;;18.20;66.90;;;;;;5039598;28;20037;-76
2022/05/07 14:07:19;;;;;;;28.17;3.92;;;17.90;66.00;;;;;;5055702;28;20120;-75
2022/05/07 14:09:49;;;;;;;26.45;3.65;;;18.00;66.60;;;;;;5056130;28;20070;-75
2022/05/07 14:12:19;;;;;;;6.40;1.40;;;18.10;65.40;;;;;;5038975;28;20492;-76
2022/05/07 14:14:46;;;;;;;28.48;2.88;;;17.90;66.10;;;;;;5055867;28;20044;-75
2022/05/07 14:17:13;;;;;;;7.47;1.98;;;17.90;65.30;;;;;;5053719;28;20062;-77
2022/05/07 14:19:40;;;;;;;4.53;1.83;;;17.80;66.40;;;;;;5055811;28;20097;-76
2022/05/07 14:22:06;;;;;;;2.60;1.65;;;17.80;65.80;;;;;;5055721;28;20132;-72
2022/05/07 14:24:33;;;;;;;8.52;5.68;;;17.60;65.50;;;;;;5054666;28;20089;-75
2022/05/07 14:26:59;;;;;;;9.55;6.22;;;17.70;68.50;;;;;;5055254;28;20041;-74
2022/05/07 14:29:26;;;;;;;8.10;5.22;;;17.60;69.20;;;;;;5038699;28;20037;-75
2022/05/07 14:31:52;;;;;;;7.28;5.20;;;17.90;68.30;;;;;;5038635;28;20145;-76
2022/05/07 14:34:18;;;;;;;;;;;17.90;67.30;;;;;;5039616;28;20124;-74
2022/05/07 14:36:44;;;;;;;9.80;7.53;;;18.00;67.20;;;;;;5056006;28;20418;-71
2022/05/07 14:39:10;;;;;;;9.40;7.45;;;17.50;67.80;;;;;;5040586;28;20048;-76
2022/05/07 14:41:38;;;;;;;11.52;7.85;;;17.10;68.50;;;;;;5040463;28;20441;-76
2022/05/07 14:44:04;;;;;;;11.50;8.73;;;16.50;70.10;;;;;;5074734;28;20206;-75
2022/05/07 14:46:30;;;;;;;10.63;8.70;;;16.30;71.40;;;;;;5022645;28;20053;-76
2022/05/07 14:48:56;;;;;;;13.48;10.38;;;16.00;72.50;;;;;;5056805;28;20040;-76
2022/05/07 14:51:21;;;;;;;12.30;9.82;;;15.90;73.40;;;;;;5074702;28;20040;-75
2022/05/07 14:53:48;;;;;;;14.82;10.27;;;15.60;74.50;;;;;;5040356;28;20044;-75
2022/05/07 14:56:14;;;;;;;14.73;10.98;;;15.50;75.00;;;;;;5056863;28;20425;-75
2022/05/07 14:58:40;;;;;;;16.25;10.68;;;15.40;75.00;;;;;;5056462;28;20132;-75
2022/05/07 15:01:07;;;;;;;19.13;11.70;;;15.30;74.60;;;;;;5040281;28;20380;-75
2022/05/07 15:03:34;;;;;;;21.15;11.18;;;15.30;74.80;;;;;;5056865;28;20381;-74
2022/05/07 15:06:02;;;;;;;13.48;9.50;;;15.20;75.10;;;;;;5039903;28;20037;-76
2022/05/07 15:11:19;;;;;;;11.93;8.23;;;15.80;76.50;;;;;;5056422;28;20110;-73
2022/05/07 15:13:46;;;;;;;11.48;7.00;;;16.20;74.10;;;;;;5039577;28;20028;-75
2022/05/07 15:16:11;;;;;;;11.30;6.82;;;16.60;70.80;;;;;;5056253;28;20469;-75
2022/05/07 15:18:37;;;;;;;8.00;5.10;;;16.90;69.10;;;;;;5039913;28;20039;-72
2022/05/07 15:21:03;;;;;;;6.53;4.13;;;16.90;67.20;;;;;;5040000;28;20135;-73
2022/05/07 15:23:29;;;;;;;8.25;3.60;;;17.00;66.40;;;;;;5040152;28;20047;-73
2022/05/07 15:25:54;;;;;;;7.63;3.38;;;17.30;65.60;;;;;;5075201;28;20049;-72
2022/05/07 15:28:21;;;;;;;7.68;3.05;;;17.40;61.80;;;;;;5074982;28;20372;-72
2022/05/07 15:30:47;;;;;;;5.43;3.05;;;17.30;61.50;;;;;;5057072;28;20040;-73
2022/05/07 15:38:41;;;;;;;8.98;3.17;;;18.40;60.20;;;;;;5055884;28;20049;-72
2022/05/07 15:41:07;;;;;;;8.00;3.53;;;17.60;60.10;;;;;;5023055;28;20037;-74
2022/05/07 15:43:33;;;;;;;12.93;4.18;;;17.40;62.30;;;;;;5055770;28;20040;-74
2022/05/07 15:45:58;;;;;;;13.52;4.30;;;16.90;64.40;;;;;;5023250;28;20048;-72
2022/05/07 15:48:24;;;;;;;11.70;5.40;;;16.50;65.40;;;;;;5055755;28;20040;-75
2022/05/07 15:50:57;;;;;;;13.60;5.80;;;16.50;66.30;;;;;;5056047;28;20128;-75
2022/05/07 15:53:23;;;;;;;13.18;6.68;;;16.30;67.60;;;;;;5056061;28;20040;-72
2022/05/07 15:55:49;;;;;;;11.40;5.57;;;16.40;68.20;;;;;;5055947;28;20041;-72
2022/05/07 15:58:15;;;;;;;9.77;5.97;;;16.20;68.30;;;;;;5038974;28;20048;-73
2022/05/07 16:00:40;;;;;;;12.05;6.10;;;16.10;68.80;;;;;;5023398;28;20087;-71
2022/05/07 16:03:06;;;;;;;12.98;6.43;;;16.00;69.80;;;;;;5039294;28;20127;-73
2022/05/07 16:05:32;;;;;;;11.88;6.60;;;16.00;69.80;;;;;;5055845;28;20044;-70
2022/05/07 16:07:58;;;;;;;11.35;5.57;;;16.00;69.50;;;;;;5038562;28;20075;-75
2022/05/07 16:10:28;;;;;;;10.18;5.97;;;15.80;70.50;;;;;;5042926;28;20063;-75
2022/05/07 16:12:55;;;;;;;10.75;6.20;;;15.90;70.10;;;;;;5049442;28;20306;-74
2022/05/07 16:15:21;;;;;;;14.38;7.18;;;15.90;70.80;;;;;;5048730;28;20036;-71
2022/05/07 16:17:46;;;;;;;13.40;7.90;;;15.80;70.40;;;;;;5050816;28;20082;-73
2022/05/07 16:20:12;;;;;;;12.48;8.60;;;15.70;71.90;;;;;;5045229;28;20037;-77
2022/05/07 16:25:41;;;;;;;13.48;8.10;;;15.10;72.60;;;;;;5052606;28;20136;-79
2022/05/07 16:28:07;;;;;;;13.73;8.52;;;15.10;73.20;;;;;;5021979;28;20158;-77
2022/05/07 16:30:35;;;;;;;15.60;7.28;;;14.90;73.90;;;;;;5055359;28;20054;-77
2022/05/07 16:33:01;;;;;;;15.98;7.25;;;14.80;73.70;;;;;;5038536;28;20091;-76
2022/05/07 16:35:28;;;;;;;18.73;8.52;;;14.70;73.70;;;;;;5055598;28;20045;-75
2022/05/07 16:38:31;;;;;;;13.55;8.02;;;14.80;74.80;;;;;;5039152;28;20495;-79
2022/05/07 16:44:55;;;;;;;14.82;7.47;;;14.70;74.50;;;;;;5043186;28;20091;-82
2022/05/07 16:47:50;;;;;;;11.70;6.50;;;14.70;74.50;;;;;;5038760;28;20035;-81
2022/05/07 16:50:22;;;;;;;14.07;7.03;;;14.60;74.40;;;;;;5038186;28;20041;-77
2022/05/07 17:01:05;;;;;;;15.82;6.50;;;14.30;75.00;;;;;;4853808;29;20036;-79
2022/05/07 17:04:06;;;;;;;16.20;6.85;;;14.30;74.80;;;;;;4879735;29;20160;-77
2022/05/07 17:06:34;;;;;;;14.20;6.82;;;14.00;75.70;;;;;;4858394;29;20047;-78
2022/05/07 17:09:22;;;;;;;14.40;6.90;;;13.90;74.80;;;;;;4880256;29;20382;-80
2022/05/07 17:11:56;;;;;;;;;;;13.90;75.20;;;;;;4862431;29;20053;-79
2022/05/07 17:14:28;;;;;;;18.63;7.25;;;13.60;77.30;;;;;;4831722;29;20023;-77
2022/05/07 17:16:56;;;;;;;15.48;7.57;;;13.50;76.50;;;;;;4846357;29;20122;-79
2022/05/07 17:19:22;;;;;;;12.73;6.35;;;13.60;76.40;;;;;;4846295;29;20046;-78
2022/05/07 17:22:11;;;;;;;18.75;7.22;;;13.50;77.00;;;;;;4847637;29;20064;-80
2022/05/07 17:24:40;;;;;;;19.48;8.45;;;13.40;76.80;;;;;;4940500;28;20049;-81
2022/05/07 17:27:15;;;;;;;16.25;8.15;;;13.50;77.50;;;;;;4981623;28;20390;-81
2022/05/07 17:29:44;;;;;;;22.75;8.63;;;13.40;78.10;;;;;;4982180;28;20049;-80
2022/05/07 17:32:35;;;;;;;14.82;8.00;;;13.50;77.90;;;;;;5001642;28;20478;-78
2022/05/07 17:35:02;;;;;;;14.02;7.70;;;13.40;77.50;;;;;;4998873;28;20473;-79
2022/05/07 17:37:37;;;;;;;16.13;8.13;;;13.40;77.60;;;;;;4982160;28;20042;-80
2022/05/07 17:44:20;;;;;;;15.50;7.72;;;13.30;78.00;;;;;;4944296;29;20107;-79
2022/05/07 17:46:54;;;;;;;13.95;6.40;;;13.20;78.10;;;;;;4916091;29;20071;-74
2022/05/07 17:50:07;;;;;;;15.57;6.20;;;13.10;77.40;;;;;;5034683;28;20033;-78